sensor_id;sensor_type;location;lat;lon;timestamp;temperature;humidity
40249;DHT22;25969;49.970;11.062;2022-12-04T05:07:05;2.20;99.90
40249;DHT22;25969;49.970;11.062;2022-12-04T05:17:06;2.10;99.90
40249;DHT22;25969;49.970;11.062;2022-12-04T05:27:07;2.10;99.90
40249;DHT22;25969;49.970;11.062;2022-12-04T05:37:07;2.10;99.90
40249;DHT22;25969;49.970;11.062;2022-12-04T05:47:08;2.00;99.90
40249;DHT22;25969;49.970;11.062;2022-12-04T05:57:09;2.00;99.90
40249;DHT22;25969;49.970;11.062;2022-12-04T06:07:10;2.10;99.90
40249;DHT22;25969;49.970;11.062;2022-12-04T06:17:10;2.00;99.90
40249;DHT22;25969;49.970;11.062;2022-12-04T06:27:11;2.10;99.90
40249;DHT22;25969;49.970;11.062;2022-12-04T06:37:12;2.10;99.90
40249;DHT22;25969;49.970;11.062;2022-12-04T06:47:12;2.10;99.90
40249;DHT22;25969;49.970;11.062;2022-12-04T06:57:13;2.10;99.90
40249;DHT22;25969;49.970;11.062;2022-12-04T07:07:14;2.10;99.90
40249;DHT22;25969;49.970;11.062;2022-12-04T07:17:14;2.00;99.90
40249;DHT22;25969;49.970;11.062;2022-12-04T07:27:15;1.90;99.90
40249;DHT22;25969;49.970;11.062;2022-12-04T07:37:16;2.20;99.90
40249;DHT22;25969;49.970;11.062;2022-12-04T07:47:16;2.20;99.90
40249;DHT22;25969;49.970;11.062;2022-12-04T07:57:17;2.30;99.90
40249;DHT22;25969;49.970;11.062;2022-12-04T08:07:18;2.40;99.90
40249;DHT22;25969;49.970;11.062;2022-12-04T08:17:18;2.40;99.90
40249;DHT22;25969;49.970;11.062;2022-12-04T08:27:19;2.80;99.90
40249;DHT22;25969;49.970;11.062;2022-12-04T08:37:20;3.40;99.90
40249;DHT22;25969;49.970;11.062;2022-12-04T08:47:21;4.00;99.90
40249;DHT22;25969;49.970;11.062;2022-12-04T08:57:21;4.10;99.90
40249;DHT22;25969;49.970;11.062;2022-12-04T09:07:22;5.00;99.90
40249;DHT22;25969;49.970;11.062;2022-12-04T09:17:23;5.20;99.90
40249;DHT22;25969;49.970;11.062;2022-12-04T09:27:23;4.80;99.90
40249;DHT22;25969;49.970;11.062;2022-12-04T09:37:24;5.30;99.90
40249;DHT22;25969;49.970;11.062;2022-12-04T09:47:39;5.50;99.90
40249;DHT22;25969;49.970;11.062;2022-12-04T09:57:45;5.70;99.90
40249;DHT22;25969;49.970;11.062;2022-12-04T10:08:24;5.80;99.90
40249;DHT22;25969;49.970;11.062;2022-12-04T10:28:46;8.20;99.90
40249;DHT22;25969;49.970;11.062;2022-12-04T10:49:03;6.60;99.90
40249;DHT22;25969;49.970;11.062;2022-12-04T10:59:14;5.60;99.90
40249;DHT22;25969;49.970;11.062;2022-12-04T11:09:21;5.70;99.90
40249;DHT22;25969;49.970;11.062;2022-12-04T11:19:31;6.00;99.90
40249;DHT22;25969;49.970;11.062;2022-12-04T11:29:42;5.60;99.90
40249;DHT22;25969;49.970;11.062;2022-12-04T11:39:45;5.90;99.90
40249;DHT22;25969;49.970;11.062;2022-12-04T11:49:57;6.10;99.90
40249;DHT22;25969;49.970;11.062;2022-12-04T12:00:11;5.80;99.90
40249;DHT22;25969;49.970;11.062;2022-12-04T12:20:41;6.10;99.90
40249;DHT22;25969;49.970;11.062;2022-12-04T12:31:04;6.70;99.90
40249;DHT22;25969;49.970;11.062;2022-12-04T12:41:13;6.10;99.90
40249;DHT22;25969;49.970;11.062;2022-12-04T12:51:32;5.80;99.90
40249;DHT22;25969;49.970;11.062;2022-12-04T13:11:40;5.80;99.90
40249;DHT22;25969;49.970;11.062;2022-12-04T13:32:47;5.50;99.90
40249;DHT22;25969;49.970;11.062;2022-12-04T13:42:50;5.30;99.90
40249;DHT22;25969;49.970;11.062;2022-12-04T13:52:51;5.20;99.90
40249;DHT22;25969;49.970;11.062;2022-12-04T14:02:56;5.20;99.90
40249;DHT22;25969;49.970;11.062;2022-12-04T14:13:18;5.20;99.90
40249;DHT22;25969;49.970;11.062;2022-12-04T14:23:39;5.10;99.90
40249;DHT22;25969;49.970;11.062;2022-12-04T14:34:01;4.90;99.90
40249;DHT22;25969;49.970;11.062;2022-12-04T14:44:03;4.80;99.90
40249;DHT22;25969;49.970;11.062;2022-12-04T14:54:10;4.60;99.90
40249;DHT22;25969;49.970;11.062;2022-12-04T15:14:24;4.30;99.90
40249;DHT22;25969;49.970;11.062;2022-12-04T15:24:24;4.10;99.90
40249;DHT22;25969;49.970;11.062;2022-12-04T15:34:40;4.10;99.90
40249;DHT22;25969;49.970;11.062;2022-12-04T15:44:59;4.10;99.90
40249;DHT22;25969;49.970;11.062;2022-12-04T15:55:07;4.10;99.90
40249;DHT22;25969;49.970;11.062;2022-12-04T16:05:12;4.10;99.90
40249;DHT22;25969;49.970;11.062;2022-12-04T16:15:13;4.00;99.90
40249;DHT22;25969;49.970;11.062;2022-12-04T16:25:14;3.90;99.90
40249;DHT22;25969;49.970;11.062;2022-12-04T16:35:16;4.00;99.90
40249;DHT22;25969;49.970;11.062;2022-12-04T16:45:27;4.10;99.90
40249;DHT22;25969;49.970;11.062;2022-12-04T16:55:38;4.10;99.90
40249;DHT22;25969;49.970;11.062;2022-12-04T17:05:39;4.20;99.90
40249;DHT22;25969;49.970;11.062;2022-12-04T17:15:40;4.30;99.90
40249;DHT22;25969;49.970;11.062;2022-12-04T17:25:40;4.30;99.90
40249;DHT22;25969;49.970;11.062;2022-12-04T17:35:42;4.40;99.90
40249;DHT22;25969;49.970;11.062;2022-12-04T17:45:43;4.30;99.90
40249;DHT22;25969;49.970;11.062;2022-12-04T17:55:44;4.30;99.90
40249;DHT22;25969;49.970;11.062;2022-12-04T18:05:44;4.30;99.90
40249;DHT22;25969;49.970;11.062;2022-12-04T18:15:45;4.20;99.90
40249;DHT22;25969;49.970;11.062;2022-12-04T18:25:56;4.10;99.90
40249;DHT22;25969;49.970;11.062;2022-12-04T18:35:58;3.90;99.90
40249;DHT22;25969;49.970;11.062;2022-12-04T18:46:01;3.80;99.90
40249;DHT22;25969;49.970;11.062;2022-12-04T18:56:02;3.90;99.90
40249;DHT22;25969;49.970;11.062;2022-12-04T19:06:03;3.90;99.90
40249;DHT22;25969;49.970;11.062;2022-12-04T19:16:12;4.00;99.90
40249;DHT22;25969;49.970;11.062;2022-12-04T19:26:14;4.10;99.90
40249;DHT22;25969;49.970;11.062;2022-12-04T19:36:15;4.20;99.90
40249;DHT22;25969;49.970;11.062;2022-12-04T19:46:19;4.30;99.90
40249;DHT22;25969;49.970;11.062;2022-12-04T19:56:23;4.50;99.90
40249;DHT22;25969;49.970;11.062;2022-12-04T20:06:27;4.50;99.90
40249;DHT22;25969;49.970;11.062;2022-12-04T20:16:29;4.70;99.90
40249;DHT22;25969;49.970;11.062;2022-12-04T20:26:33;4.70;99.90
40249;DHT22;25969;49.970;11.062;2022-12-04T20:36:36;4.80;99.90
40249;DHT22;25969;49.970;11.062;2022-12-04T20:46:38;4.70;99.90
40249;DHT22;25969;49.970;11.062;2022-12-04T20:56:39;4.70;99.90
40249;DHT22;25969;49.970;11.062;2022-12-04T21:06:40;5.20;99.90
40249;DHT22;25969;49.970;11.062;2022-12-04T21:16:41;4.60;99.90
40249;DHT22;25969;49.970;11.062;2022-12-04T21:26:42;4.60;99.90
40249;DHT22;25969;49.970;11.062;2022-12-04T21:36:44;4.70;99.90
40249;DHT22;25969;49.970;11.062;2022-12-04T21:46:46;4.70;99.90
40249;DHT22;25969;49.970;11.062;2022-12-04T21:56:46;4.70;99.90
40249;DHT22;25969;49.970;11.062;2022-12-04T22:06:47;4.70;99.90
40249;DHT22;25969;49.970;11.062;2022-12-04T22:16:51;4.70;99.90
40249;DHT22;25969;49.970;11.062;2022-12-04T22:26:52;4.80;99.90
40249;DHT22;25969;49.970;11.062;2022-12-04T22:36:53;4.80;99.90
40249;DHT22;25969;49.970;11.062;2022-12-04T22:46:53;4.80;99.90
40249;DHT22;25969;49.970;11.062;2022-12-04T22:56:54;4.70;99.90
